sensor_id;sensor_type;location;lat;lon;timestamp;P1;P2;P0
46681;PMS5003;34101;53.430;-2.224;2023-06-01T00:01:13;12;11;
46681;PMS5003;34101;53.430;-2.224;2023-06-01T00:03:41;9;9;
46681;PMS5003;34101;53.430;-2.224;2023-06-01T00:06:08;15;13;
46681;PMS5003;34101;53.430;-2.224;2023-06-01T00:08:36;12;11;
46681;PMS5003;34101;53.430;-2.224;2023-06-01T00:11:03;11;9;
46681;PMS5003;34101;53.430;-2.224;2023-06-01T00:13:30;12;11;
46681;PMS5003;34101;53.430;-2.224;2023-06-01T00:15:58;9;9;
46681;PMS5003;34101;53.430;-2.224;2023-06-01T00:18:25;10;10;
46681;PMS5003;34101;53.430;-2.224;2023-06-01T00:20:53;9;8;
46681;PMS5003;34101;53.430;-2.224;2023-06-01T00:23:25;13;11;
46681;PMS5003;34101;53.430;-2.224;2023-06-01T00:25:53;14;13;
46681;PMS5003;34101;53.430;-2.224;2023-06-01T00:28:20;11;11;
46681;PMS5003;34101;53.430;-2.224;2023-06-01T00:30:47;12;10;
46681;PMS5003;34101;53.430;-2.224;2023-06-01T00:33:15;13;11;
46681;PMS5003;34101;53.430;-2.224;2023-06-01T00:35:42;12;10;
46681;PMS5003;34101;53.430;-2.224;2023-06-01T00:38:09;10;10;
46681;PMS5003;34101;53.430;-2.224;2023-06-01T00:40:37;13;11;
46681;PMS5003;34101;53.430;-2.224;2023-06-01T00:43:04;10;10;
46681;PMS5003;34101;53.430;-2.224;2023-06-01T00:45:31;12;11;
46681;PMS5003;34101;53.430;-2.224;2023-06-01T00:47:59;12;10;
46681;PMS5003;34101;53.430;-2.224;2023-06-01T00:50:26;9;9;
46681;PMS5003;34101;53.430;-2.224;2023-06-01T00:52:54;9;9;
46681;PMS5003;34101;53.430;-2.224;2023-06-01T00:55:22;15;10;
46681;PMS5003;34101;53.430;-2.224;2023-06-01T00:57:50;11;11;
46681;PMS5003;34101;53.430;-2.224;2023-06-01T01:00:18;8;7;
46681;PMS5003;34101;53.430;-2.224;2023-06-01T01:02:45;10;10;
46681;PMS5003;34101;53.430;-2.224;2023-06-01T01:05:13;16;13;
46681;PMS5003;34101;53.430;-2.224;2023-06-01T01:07:44;12;11;
46681;PMS5003;34101;53.430;-2.224;2023-06-01T01:10:20;10;10;
46681;PMS5003;34101;53.430;-2.224;2023-06-01T01:12:53;13;11;
46681;PMS5003;34101;53.430;-2.224;2023-06-01T01:15:32;12;12;
46681;PMS5003;34101;53.430;-2.224;2023-06-01T01:18:10;8;8;
46681;PMS5003;34101;53.430;-2.224;2023-06-01T01:20:41;8;7;
46681;PMS5003;34101;53.430;-2.224;2023-06-01T01:23:15;10;10;
46681;PMS5003;34101;53.430;-2.224;2023-06-01T01:26:00;9;9;
46681;PMS5003;34101;53.430;-2.224;2023-06-01T01:28:36;9;9;
46681;PMS5003;34101;53.430;-2.224;2023-06-01T01:31:09;14;11;
46681;PMS5003;34101;53.430;-2.224;2023-06-01T01:33:39;9;9;
46681;PMS5003;34101;53.430;-2.224;2023-06-01T01:36:08;11;11;
46681;PMS5003;34101;53.430;-2.224;2023-06-01T01:38:36;10;10;
46681;PMS5003;34101;53.430;-2.224;2023-06-01T01:41:04;9;9;
46681;PMS5003;34101;53.430;-2.224;2023-06-01T01:43:31;10;10;
46681;PMS5003;34101;53.430;-2.224;2023-06-01T01:46:01;8;8;
46681;PMS5003;34101;53.430;-2.224;2023-06-01T01:48:36;10;10;
46681;PMS5003;34101;53.430;-2.224;2023-06-01T01:51:10;9;9;
46681;PMS5003;34101;53.430;-2.224;2023-06-01T01:53:42;9;8;
46681;PMS5003;34101;53.430;-2.224;2023-06-01T01:56:11;11;11;
46681;PMS5003;34101;53.430;-2.224;2023-06-01T01:58:40;11;9;
46681;PMS5003;34101;53.430;-2.224;2023-06-01T02:01:09;11;11;
46681;PMS5003;34101;53.430;-2.224;2023-06-01T02:03:38;11;11;
46681;PMS5003;34101;53.430;-2.224;2023-06-01T02:06:06;11;9;
46681;PMS5003;34101;53.430;-2.224;2023-06-01T02:08:33;9;9;
46681;PMS5003;34101;53.430;-2.224;2023-06-01T02:11:01;11;11;
46681;PMS5003;34101;53.430;-2.224;2023-06-01T02:13:28;9;9;
46681;PMS5003;34101;53.430;-2.224;2023-06-01T02:15:56;9;9;
46681;PMS5003;34101;53.430;-2.224;2023-06-01T02:18:23;9;8;
46681;PMS5003;34101;53.430;-2.224;2023-06-01T02:20:50;10;10;
46681;PMS5003;34101;53.430;-2.224;2023-06-01T02:23:18;11;10;
46681;PMS5003;34101;53.430;-2.224;2023-06-01T02:25:46;9;9;
46681;PMS5003;34101;53.430;-2.224;2023-06-01T02:28:14;9;9;
46681;PMS5003;34101;53.430;-2.224;2023-06-01T02:30:41;11;11;
46681;PMS5003;34101;53.430;-2.224;2023-06-01T02:33:09;12;12;
46681;PMS5003;34101;53.430;-2.224;2023-06-01T02:35:37;9;9;
46681;PMS5003;34101;53.430;-2.224;2023-06-01T02:38:05;12;9;
46681;PMS5003;34101;53.430;-2.224;2023-06-01T02:40:38;10;10;
46681;PMS5003;34101;53.430;-2.224;2023-06-01T02:43:06;8;8;
46681;PMS5003;34101;53.430;-2.224;2023-06-01T02:45:34;16;14;
46681;PMS5003;34101;53.430;-2.224;2023-06-01T02:48:02;11;11;
46681;PMS5003;34101;53.430;-2.224;2023-06-01T02:50:29;9;9;
46681;PMS5003;34101;53.430;-2.224;2023-06-01T02:52:56;11;11;
46681;PMS5003;34101;53.430;-2.224;2023-06-01T02:55:24;12;11;
46681;PMS5003;34101;53.430;-2.224;2023-06-01T02:57:52;11;11;
46681;PMS5003;34101;53.430;-2.224;2023-06-01T03:00:19;12;12;
46681;PMS5003;34101;53.430;-2.224;2023-06-01T03:02:47;11;10;
46681;PMS5003;34101;53.430;-2.224;2023-06-01T03:05:15;9;9;
46681;PMS5003;34101;53.430;-2.224;2023-06-01T03:07:47;9;9;
46681;PMS5003;34101;53.430;-2.224;2023-06-01T03:10:15;11;11;
46681;PMS5003;34101;53.430;-2.224;2023-06-01T03:12:43;10;8;
46681;PMS5003;34101;53.430;-2.224;2023-06-01T03:15:10;10;9;
46681;PMS5003;34101;53.430;-2.224;2023-06-01T03:17:38;12;11;
46681;PMS5003;34101;53.430;-2.224;2023-06-01T03:20:06;12;10;
46681;PMS5003;34101;53.430;-2.224;2023-06-01T03:22:34;12;11;
46681;PMS5003;34101;53.430;-2.224;2023-06-01T03:25:01;11;10;
46681;PMS5003;34101;53.430;-2.224;2023-06-01T03:27:29;10;10;
46681;PMS5003;34101;53.430;-2.224;2023-06-01T03:29:56;10;10;
46681;PMS5003;34101;53.430;-2.224;2023-06-01T03:32:24;12;10;
46681;PMS5003;34101;53.430;-2.224;2023-06-01T03:34:51;10;10;
46681;PMS5003;34101;53.430;-2.224;2023-06-01T03:37:18;11;10;
46681;PMS5003;34101;53.430;-2.224;2023-06-01T03:39:46;9;9;
46681;PMS5003;34101;53.430;-2.224;2023-06-01T03:42:13;12;10;
46681;PMS5003;34101;53.430;-2.224;2023-06-01T03:44:41;10;10;
46681;PMS5003;34101;53.430;-2.224;2023-06-01T03:47:13;13;11;
46681;PMS5003;34101;53.430;-2.224;2023-06-01T03:49:41;14;11;
46681;PMS5003;34101;53.430;-2.224;2023-06-01T03:52:09;13;11;
46681;PMS5003;34101;53.430;-2.224;2023-06-01T03:54:36;12;12;
46681;PMS5003;34101;53.430;-2.224;2023-06-01T03:57:04;13;13;
46681;PMS5003;34101;53.430;-2.224;2023-06-01T03:59:31;13;13;
46681;PMS5003;34101;53.430;-2.224;2023-06-01T04:01:59;11;10;
46681;PMS5003;34101;53.430;-2.224;2023-06-01T04:04:27;11;8;
46681;PMS5003;34101;53.430;-2.224;2023-06-01T04:06:55;13;13;
46681;PMS5003;34101;53.430;-2.224;2023-06-01T04:09:23;13;12;
46681;PMS5003;34101;53.430;-2.224;2023-06-01T04:11:51;13;12;
46681;PMS5003;34101;53.430;-2.224;2023-06-01T04:14:19;13;11;
46681;PMS5003;34101;53.430;-2.224;2023-06-01T04:16:46;12;11;
46681;PMS5003;34101;53.430;-2.224;2023-06-01T04:19:13;13;12;
46681;PMS5003;34101;53.430;-2.224;2023-06-01T04:21:41;13;13;
46681;PMS5003;34101;53.430;-2.224;2023-06-01T04:24:09;13;12;
46681;PMS5003;34101;53.430;-2.224;2023-06-01T04:26:36;12;12;
46681;PMS5003;34101;53.430;-2.224;2023-06-01T04:29:04;16;15;
46681;PMS5003;34101;53.430;-2.224;2023-06-01T04:31:31;12;11;
46681;PMS5003;34101;53.430;-2.224;2023-06-01T04:33:59;13;11;
46681;PMS5003;34101;53.430;-2.224;2023-06-01T04:36:27;12;12;
46681;PMS5003;34101;53.430;-2.224;2023-06-01T04:38:54;11;11;
46681;PMS5003;34101;53.430;-2.224;2023-06-01T04:41:23;13;13;
46681;PMS5003;34101;53.430;-2.224;2023-06-01T04:43:51;10;10;
46681;PMS5003;34101;53.430;-2.224;2023-06-01T04:46:19;11;11;
46681;PMS5003;34101;53.430;-2.224;2023-06-01T04:48:47;9;9;
46681;PMS5003;34101;53.430;-2.224;2023-06-01T04:51:15;10;10;
46681;PMS5003;34101;53.430;-2.224;2023-06-01T04:53:42;14;13;
46681;PMS5003;34101;53.430;-2.224;2023-06-01T04:56:10;11;11;
46681;PMS5003;34101;53.430;-2.224;2023-06-01T04:58:37;11;11;
46681;PMS5003;34101;53.430;-2.224;2023-06-01T05:01:04;12;12;
46681;PMS5003;34101;53.430;-2.224;2023-06-01T05:03:32;10;10;
46681;PMS5003;34101;53.430;-2.224;2023-06-01T05:05:59;9;8;
46681;PMS5003;34101;53.430;-2.224;2023-06-01T05:08:32;13;13;
46681;PMS5003;34101;53.430;-2.224;2023-06-01T05:10:59;12;11;
46681;PMS5003;34101;53.430;-2.224;2023-06-01T05:13:27;12;12;
46681;PMS5003;34101;53.430;-2.224;2023-06-01T05:15:54;12;10;
46681;PMS5003;34101;53.430;-2.224;2023-06-01T05:18:21;11;11;
46681;PMS5003;34101;53.430;-2.224;2023-06-01T05:20:49;12;10;
46681;PMS5003;34101;53.430;-2.224;2023-06-01T05:23:17;10;10;
46681;PMS5003;34101;53.430;-2.224;2023-06-01T05:25:44;9;9;
46681;PMS5003;34101;53.430;-2.224;2023-06-01T05:28:11;10;9;
46681;PMS5003;34101;53.430;-2.224;2023-06-01T05:30:39;10;9;
46681;PMS5003;34101;53.430;-2.224;2023-06-01T05:33:06;9;9;
46681;PMS5003;34101;53.430;-2.224;2023-06-01T05:35:34;11;11;
46681;PMS5003;34101;53.430;-2.224;2023-06-01T05:38:02;10;10;
46681;PMS5003;34101;53.430;-2.224;2023-06-01T05:40:34;9;9;
46681;PMS5003;34101;53.430;-2.224;2023-06-01T05:43:02;13;11;
46681;PMS5003;34101;53.430;-2.224;2023-06-01T05:45:30;12;12;
46681;PMS5003;34101;53.430;-2.224;2023-06-01T05:47:57;10;10;
46681;PMS5003;34101;53.430;-2.224;2023-06-01T05:50:25;10;10;
46681;PMS5003;34101;53.430;-2.224;2023-06-01T05:52:57;9;9;
46681;PMS5003;34101;53.430;-2.224;2023-06-01T05:55:25;14;14;
46681;PMS5003;34101;53.430;-2.224;2023-06-01T05:57:52;10;10;
46681;PMS5003;34101;53.430;-2.224;2023-06-01T06:00:20;9;8;
46681;PMS5003;34101;53.430;-2.224;2023-06-01T06:02:47;10;10;
46681;PMS5003;34101;53.430;-2.224;2023-06-01T06:05:15;11;10;
46681;PMS5003;34101;53.430;-2.224;2023-06-01T06:07:42;11;9;
46681;PMS5003;34101;53.430;-2.224;2023-06-01T06:10:10;9;9;
46681;PMS5003;34101;53.430;-2.224;2023-06-01T06:12:38;7;7;
46681;PMS5003;34101;53.430;-2.224;2023-06-01T06:15:07;8;8;
46681;PMS5003;34101;53.430;-2.224;2023-06-01T06:17:34;11;10;
46681;PMS5003;34101;53.430;-2.224;2023-06-01T06:20:02;12;12;
46681;PMS5003;34101;53.430;-2.224;2023-06-01T06:22:30;9;9;
46681;PMS5003;34101;53.430;-2.224;2023-06-01T06:24:57;10;8;
46681;PMS5003;34101;53.430;-2.224;2023-06-01T06:27:25;10;10;
46681;PMS5003;34101;53.430;-2.224;2023-06-01T06:29:52;11;10;
46681;PMS5003;34101;53.430;-2.224;2023-06-01T06:32:20;13;11;
46681;PMS5003;34101;53.430;-2.224;2023-06-01T06:34:47;10;10;
46681;PMS5003;34101;53.430;-2.224;2023-06-01T06:37:14;9;9;
46681;PMS5003;34101;53.430;-2.224;2023-06-01T06:39:42;11;11;
46681;PMS5003;34101;53.430;-2.224;2023-06-01T06:42:11;12;12;
46681;PMS5003;34101;53.430;-2.224;2023-06-01T06:44:38;9;8;
46681;PMS5003;34101;53.430;-2.224;2023-06-01T06:47:06;10;9;
46681;PMS5003;34101;53.430;-2.224;2023-06-01T06:49:33;13;11;
46681;PMS5003;34101;53.430;-2.224;2023-06-01T06:52:01;11;9;
46681;PMS5003;34101;53.430;-2.224;2023-06-01T06:54:29;7;7;
46681;PMS5003;34101;53.430;-2.224;2023-06-01T06:56:56;12;12;
46681;PMS5003;34101;53.430;-2.224;2023-06-01T06:59:23;11;8;
46681;PMS5003;34101;53.430;-2.224;2023-06-01T07:01:50;9;9;
46681;PMS5003;34101;53.430;-2.224;2023-06-01T07:04:18;9;9;
46681;PMS5003;34101;53.430;-2.224;2023-06-01T07:06:45;10;9;
46681;PMS5003;34101;53.430;-2.224;2023-06-01T07:09:12;8;8;
46681;PMS5003;34101;53.430;-2.224;2023-06-01T07:11:41;10;10;
46681;PMS5003;34101;53.430;-2.224;2023-06-01T07:14:09;11;10;
46681;PMS5003;34101;53.430;-2.224;2023-06-01T07:16:36;11;10;
46681;PMS5003;34101;53.430;-2.224;2023-06-01T07:19:04;9;9;
46681;PMS5003;34101;53.430;-2.224;2023-06-01T07:21:31;13;13;
46681;PMS5003;34101;53.430;-2.224;2023-06-01T07:23:58;10;10;
46681;PMS5003;34101;53.430;-2.224;2023-06-01T07:26:25;10;10;
46681;PMS5003;34101;53.430;-2.224;2023-06-01T07:28:53;12;12;
46681;PMS5003;34101;53.430;-2.224;2023-06-01T07:31:20;10;8;
46681;PMS5003;34101;53.430;-2.224;2023-06-01T07:33:48;13;11;
46681;PMS5003;34101;53.430;-2.224;2023-06-01T07:36:17;10;9;
46681;PMS5003;34101;53.430;-2.224;2023-06-01T07:38:45;10;10;
46681;PMS5003;34101;53.430;-2.224;2023-06-01T07:41:12;11;11;
46681;PMS5003;34101;53.430;-2.224;2023-06-01T07:43:40;10;8;
46681;PMS5003;34101;53.430;-2.224;2023-06-01T07:46:08;10;10;
46681;PMS5003;34101;53.430;-2.224;2023-06-01T07:48:35;8;8;
46681;PMS5003;34101;53.430;-2.224;2023-06-01T07:51:03;9;8;
46681;PMS5003;34101;53.430;-2.224;2023-06-01T07:53:32;9;9;
46681;PMS5003;34101;53.430;-2.224;2023-06-01T07:55:59;9;9;
46681;PMS5003;34101;53.430;-2.224;2023-06-01T07:58:27;11;9;
46681;PMS5003;34101;53.430;-2.224;2023-06-01T08:00:54;8;8;
46681;PMS5003;34101;53.430;-2.224;2023-06-01T08:03:22;9;9;
46681;PMS5003;34101;53.430;-2.224;2023-06-01T08:05:49;8;7;
46681;PMS5003;34101;53.430;-2.224;2023-06-01T08:08:17;8;8;
46681;PMS5003;34101;53.430;-2.224;2023-06-01T08:10:44;7;7;
46681;PMS5003;34101;53.430;-2.224;2023-06-01T08:13:12;7;7;
46681;PMS5003;34101;53.430;-2.224;2023-06-01T08:15:40;9;9;
46681;PMS5003;34101;53.430;-2.224;2023-06-01T08:18:08;10;9;
46681;PMS5003;34101;53.430;-2.224;2023-06-01T08:20:35;8;8;
46681;PMS5003;34101;53.430;-2.224;2023-06-01T08:23:03;9;9;
46681;PMS5003;34101;53.430;-2.224;2023-06-01T08:25:30;9;8;
46681;PMS5003;34101;53.430;-2.224;2023-06-01T08:27:58;8;8;
46681;PMS5003;34101;53.430;-2.224;2023-06-01T08:30:25;9;9;
46681;PMS5003;34101;53.430;-2.224;2023-06-01T08:32:53;6;6;
46681;PMS5003;34101;53.430;-2.224;2023-06-01T08:35:20;9;9;
46681;PMS5003;34101;53.430;-2.224;2023-06-01T08:37:48;8;8;
46681;PMS5003;34101;53.430;-2.224;2023-06-01T08:40:15;7;7;
46681;PMS5003;34101;53.430;-2.224;2023-06-01T08:42:43;9;9;
46681;PMS5003;34101;53.430;-2.224;2023-06-01T08:45:20;7;7;
46681;PMS5003;34101;53.430;-2.224;2023-06-01T08:47:49;9;9;
46681;PMS5003;34101;53.430;-2.224;2023-06-01T08:50:20;6;6;
46681;PMS5003;34101;53.430;-2.224;2023-06-01T08:52:48;8;8;
46681;PMS5003;34101;53.430;-2.224;2023-06-01T08:55:19;6;6;
46681;PMS5003;34101;53.430;-2.224;2023-06-01T08:57:47;8;8;
46681;PMS5003;34101;53.430;-2.224;2023-06-01T09:00:15;6;6;
46681;PMS5003;34101;53.430;-2.224;2023-06-01T09:02:43;6;6;
46681;PMS5003;34101;53.430;-2.224;2023-06-01T09:05:11;6;6;
46681;PMS5003;34101;53.430;-2.224;2023-06-01T09:07:40;7;7;
46681;PMS5003;34101;53.430;-2.224;2023-06-01T09:10:08;8;8;
46681;PMS5003;34101;53.430;-2.224;2023-06-01T09:12:37;6;6;
46681;PMS5003;34101;53.430;-2.224;2023-06-01T09:15:09;7;7;
46681;PMS5003;34101;53.430;-2.224;2023-06-01T09:17:38;5;5;
46681;PMS5003;34101;53.430;-2.224;2023-06-01T09:20:11;6;6;
46681;PMS5003;34101;53.430;-2.224;2023-06-01T09:22:39;7;7;
46681;PMS5003;34101;53.430;-2.224;2023-06-01T09:25:09;3;3;
46681;PMS5003;34101;53.430;-2.224;2023-06-01T09:27:41;6;6;
46681;PMS5003;34101;53.430;-2.224;2023-06-01T09:30:11;7;7;
46681;PMS5003;34101;53.430;-2.224;2023-06-01T09:32:40;6;6;
46681;PMS5003;34101;53.430;-2.224;2023-06-01T09:35:08;6;6;
46681;PMS5003;34101;53.430;-2.224;2023-06-01T09:37:36;8;7;
46681;PMS5003;34101;53.430;-2.224;2023-06-01T09:40:16;7;7;
46681;PMS5003;34101;53.430;-2.224;2023-06-01T09:42:44;6;6;
46681;PMS5003;34101;53.430;-2.224;2023-06-01T09:45:15;6;5;
46681;PMS5003;34101;53.430;-2.224;2023-06-01T09:47:45;9;7;
46681;PMS5003;34101;53.430;-2.224;2023-06-01T09:50:33;7;7;
46681;PMS5003;34101;53.430;-2.224;2023-06-01T09:53:03;7;7;
46681;PMS5003;34101;53.430;-2.224;2023-06-01T09:55:32;6;6;
46681;PMS5003;34101;53.430;-2.224;2023-06-01T09:58:31;7;6;
46681;PMS5003;34101;53.430;-2.224;2023-06-01T10:00:59;6;6;
46681;PMS5003;34101;53.430;-2.224;2023-06-01T10:03:27;8;8;
46681;PMS5003;34101;53.430;-2.224;2023-06-01T10:05:55;7;7;
46681;PMS5003;34101;53.430;-2.224;2023-06-01T10:08:24;8;7;
46681;PMS5003;34101;53.430;-2.224;2023-06-01T10:10:52;6;6;
46681;PMS5003;34101;53.430;-2.224;2023-06-01T10:13:20;7;7;
46681;PMS5003;34101;53.430;-2.224;2023-06-01T10:15:47;8;8;
46681;PMS5003;34101;53.430;-2.224;2023-06-01T10:18:14;6;6;
46681;PMS5003;34101;53.430;-2.224;2023-06-01T10:20:43;7;6;
46681;PMS5003;34101;53.430;-2.224;2023-06-01T10:23:12;7;7;
46681;PMS5003;34101;53.430;-2.224;2023-06-01T10:25:40;4;4;
46681;PMS5003;34101;53.430;-2.224;2023-06-01T10:28:11;7;5;
46681;PMS5003;34101;53.430;-2.224;2023-06-01T10:30:39;4;4;
46681;PMS5003;34101;53.430;-2.224;2023-06-01T10:33:07;6;6;
46681;PMS5003;34101;53.430;-2.224;2023-06-01T10:36:07;5;5;
46681;PMS5003;34101;53.430;-2.224;2023-06-01T10:38:35;5;5;
46681;PMS5003;34101;53.430;-2.224;2023-06-01T10:41:34;5;5;
46681;PMS5003;34101;53.430;-2.224;2023-06-01T10:44:01;5;4;
46681;PMS5003;34101;53.430;-2.224;2023-06-01T10:46:35;5;5;
46681;PMS5003;34101;53.430;-2.224;2023-06-01T10:49:04;4;4;
46681;PMS5003;34101;53.430;-2.224;2023-06-01T10:51:31;3;3;
46681;PMS5003;34101;53.430;-2.224;2023-06-01T10:54:31;3;3;
46681;PMS5003;34101;53.430;-2.224;2023-06-01T10:57:32;3;3;
46681;PMS5003;34101;53.430;-2.224;2023-06-01T11:00:17;3;3;
46681;PMS5003;34101;53.430;-2.224;2023-06-01T11:02:48;3;3;
46681;PMS5003;34101;53.430;-2.224;2023-06-01T11:05:34;3;3;
46681;PMS5003;34101;53.430;-2.224;2023-06-01T11:08:04;1;1;
46681;PMS5003;34101;53.430;-2.224;2023-06-01T11:11:05;3;3;
46681;PMS5003;34101;53.430;-2.224;2023-06-01T11:13:34;3;3;
46681;PMS5003;34101;53.430;-2.224;2023-06-01T11:16:34;2;1;
46681;PMS5003;34101;53.430;-2.224;2023-06-01T11:19:02;4;3;
46681;PMS5003;34101;53.430;-2.224;2023-06-01T11:21:31;3;2;
46681;PMS5003;34101;53.430;-2.224;2023-06-01T11:24:03;3;3;
46681;PMS5003;34101;53.430;-2.224;2023-06-01T11:26:34;4;4;
46681;PMS5003;34101;53.430;-2.224;2023-06-01T11:29:04;2;2;
46681;PMS5003;34101;53.430;-2.224;2023-06-01T11:31:35;2;2;
46681;PMS5003;34101;53.430;-2.224;2023-06-01T11:34:04;2;2;
46681;PMS5003;34101;53.430;-2.224;2023-06-01T11:36:37;2;2;
46681;PMS5003;34101;53.430;-2.224;2023-06-01T11:39:15;1;1;
46681;PMS5003;34101;53.430;-2.224;2023-06-01T11:41:43;2;2;
46681;PMS5003;34101;53.430;-2.224;2023-06-01T11:44:10;2;2;
46681;PMS5003;34101;53.430;-2.224;2023-06-01T11:46:49;2;2;
46681;PMS5003;34101;53.430;-2.224;2023-06-01T11:49:24;3;3;
46681;PMS5003;34101;53.430;-2.224;2023-06-01T11:51:52;3;3;
46681;PMS5003;34101;53.430;-2.224;2023-06-01T11:54:22;1;1;
46681;PMS5003;34101;53.430;-2.224;2023-06-01T11:56:51;2;2;
46681;PMS5003;34101;53.430;-2.224;2023-06-01T11:59:19;2;2;
46681;PMS5003;34101;53.430;-2.224;2023-06-01T12:01:48;3;3;
46681;PMS5003;34101;53.430;-2.224;2023-06-01T12:04:18;3;3;
46681;PMS5003;34101;53.430;-2.224;2023-06-01T12:06:47;2;2;
46681;PMS5003;34101;53.430;-2.224;2023-06-01T12:09:15;2;2;
46681;PMS5003;34101;53.430;-2.224;2023-06-01T12:11:43;2;2;
46681;PMS5003;34101;53.430;-2.224;2023-06-01T12:14:12;2;2;
46681;PMS5003;34101;53.430;-2.224;2023-06-01T12:16:52;2;2;
46681;PMS5003;34101;53.430;-2.224;2023-06-01T12:19:21;3;3;
46681;PMS5003;34101;53.430;-2.224;2023-06-01T12:21:49;3;3;
46681;PMS5003;34101;53.430;-2.224;2023-06-01T12:24:17;3;3;
46681;PMS5003;34101;53.430;-2.224;2023-06-01T12:26:45;3;3;
46681;PMS5003;34101;53.430;-2.224;2023-06-01T12:29:13;2;2;
46681;PMS5003;34101;53.430;-2.224;2023-06-01T12:31:51;2;2;
46681;PMS5003;34101;53.430;-2.224;2023-06-01T12:34:25;2;2;
46681;PMS5003;34101;53.430;-2.224;2023-06-01T12:36:52;2;2;
46681;PMS5003;34101;53.430;-2.224;2023-06-01T12:39:31;2;2;
46681;PMS5003;34101;53.430;-2.224;2023-06-01T12:41:58;1;1;
46681;PMS5003;34101;53.430;-2.224;2023-06-01T12:44:26;2;2;
46681;PMS5003;34101;53.430;-2.224;2023-06-01T12:46:55;2;2;
46681;PMS5003;34101;53.430;-2.224;2023-06-01T12:49:24;3;3;
46681;PMS5003;34101;53.430;-2.224;2023-06-01T12:51:52;3;3;
46681;PMS5003;34101;53.430;-2.224;2023-06-01T12:54:19;4;4;
46681;PMS5003;34101;53.430;-2.224;2023-06-01T12:56:47;4;4;
46681;PMS5003;34101;53.430;-2.224;2023-06-01T12:59:15;4;4;
46681;PMS5003;34101;53.430;-2.224;2023-06-01T13:01:43;3;3;
46681;PMS5003;34101;53.430;-2.224;2023-06-01T13:04:11;4;3;
46681;PMS5003;34101;53.430;-2.224;2023-06-01T13:06:38;4;4;
46681;PMS5003;34101;53.430;-2.224;2023-06-01T13:09:06;3;3;
46681;PMS5003;34101;53.430;-2.224;2023-06-01T13:11:34;3;3;
46681;PMS5003;34101;53.430;-2.224;2023-06-01T13:14:01;2;2;
46681;PMS5003;34101;53.430;-2.224;2023-06-01T13:16:29;3;3;
46681;PMS5003;34101;53.430;-2.224;2023-06-01T13:18:56;2;2;
46681;PMS5003;34101;53.430;-2.224;2023-06-01T13:21:29;5;5;
46681;PMS5003;34101;53.430;-2.224;2023-06-01T13:23:56;3;3;
46681;PMS5003;34101;53.430;-2.224;2023-06-01T13:26:23;4;4;
46681;PMS5003;34101;53.430;-2.224;2023-06-01T13:28:51;5;5;
46681;PMS5003;34101;53.430;-2.224;2023-06-01T13:31:19;4;4;
46681;PMS5003;34101;53.430;-2.224;2023-06-01T13:33:46;4;4;
46681;PMS5003;34101;53.430;-2.224;2023-06-01T13:36:13;7;6;
46681;PMS5003;34101;53.430;-2.224;2023-06-01T13:38:41;4;4;
46681;PMS5003;34101;53.430;-2.224;2023-06-01T13:41:08;5;5;
46681;PMS5003;34101;53.430;-2.224;2023-06-01T13:43:36;6;6;
46681;PMS5003;34101;53.430;-2.224;2023-06-01T13:46:03;3;3;
46681;PMS5003;34101;53.430;-2.224;2023-06-01T13:48:31;5;5;
46681;PMS5003;34101;53.430;-2.224;2023-06-01T13:50:58;6;6;
46681;PMS5003;34101;53.430;-2.224;2023-06-01T13:53:30;6;6;
46681;PMS5003;34101;53.430;-2.224;2023-06-01T13:55:58;7;7;
46681;PMS5003;34101;53.430;-2.224;2023-06-01T13:58:25;6;6;
46681;PMS5003;34101;53.430;-2.224;2023-06-01T14:00:53;4;4;
46681;PMS5003;34101;53.430;-2.224;2023-06-01T14:03:21;7;7;
46681;PMS5003;34101;53.430;-2.224;2023-06-01T14:05:53;8;8;
46681;PMS5003;34101;53.430;-2.224;2023-06-01T14:08:21;5;5;
46681;PMS5003;34101;53.430;-2.224;2023-06-01T14:10:48;8;7;
46681;PMS5003;34101;53.430;-2.224;2023-06-01T14:13:15;5;5;
46681;PMS5003;34101;53.430;-2.224;2023-06-01T14:15:43;5;5;
46681;PMS5003;34101;53.430;-2.224;2023-06-01T14:18:10;6;6;
46681;PMS5003;34101;53.430;-2.224;2023-06-01T14:20:38;5;5;
46681;PMS5003;34101;53.430;-2.224;2023-06-01T14:23:05;7;7;
46681;PMS5003;34101;53.430;-2.224;2023-06-01T14:25:33;6;6;
46681;PMS5003;34101;53.430;-2.224;2023-06-01T14:28:00;5;5;
46681;PMS5003;34101;53.430;-2.224;2023-06-01T14:30:27;6;5;
46681;PMS5003;34101;53.430;-2.224;2023-06-01T14:32:55;6;4;
46681;PMS5003;34101;53.430;-2.224;2023-06-01T14:35:22;7;5;
46681;PMS5003;34101;53.430;-2.224;2023-06-01T14:37:50;5;5;
46681;PMS5003;34101;53.430;-2.224;2023-06-01T14:40:22;6;6;
46681;PMS5003;34101;53.430;-2.224;2023-06-01T14:42:50;5;5;
46681;PMS5003;34101;53.430;-2.224;2023-06-01T14:45:17;6;5;
46681;PMS5003;34101;53.430;-2.224;2023-06-01T14:47:45;5;5;
46681;PMS5003;34101;53.430;-2.224;2023-06-01T14:50:12;6;6;
46681;PMS5003;34101;53.430;-2.224;2023-06-01T14:52:40;5;5;
46681;PMS5003;34101;53.430;-2.224;2023-06-01T14:55:08;5;5;
46681;PMS5003;34101;53.430;-2.224;2023-06-01T14:57:35;6;6;
46681;PMS5003;34101;53.430;-2.224;2023-06-01T15:00:04;8;8;
46681;PMS5003;34101;53.430;-2.224;2023-06-01T15:02:32;6;6;
46681;PMS5003;34101;53.430;-2.224;2023-06-01T15:05:00;5;5;
46681;PMS5003;34101;53.430;-2.224;2023-06-01T15:07:28;5;5;
46681;PMS5003;34101;53.430;-2.224;2023-06-01T15:09:55;4;4;
46681;PMS5003;34101;53.430;-2.224;2023-06-01T15:12:23;6;5;
46681;PMS5003;34101;53.430;-2.224;2023-06-01T15:14:50;5;5;
46681;PMS5003;34101;53.430;-2.224;2023-06-01T15:17:18;5;5;
46681;PMS5003;34101;53.430;-2.224;2023-06-01T15:19:45;5;5;
46681;PMS5003;34101;53.430;-2.224;2023-06-01T15:22:12;6;4;
46681;PMS5003;34101;53.430;-2.224;2023-06-01T15:24:41;4;4;
46681;PMS5003;34101;53.430;-2.224;2023-06-01T15:27:09;5;5;
46681;PMS5003;34101;53.430;-2.224;2023-06-01T15:29:37;7;7;
46681;PMS5003;34101;53.430;-2.224;2023-06-01T15:32:05;5;5;
46681;PMS5003;34101;53.430;-2.224;2023-06-01T15:34:33;6;6;
46681;PMS5003;34101;53.430;-2.224;2023-06-01T15:37:01;3;3;
46681;PMS5003;34101;53.430;-2.224;2023-06-01T15:39:28;4;4;
46681;PMS5003;34101;53.430;-2.224;2023-06-01T15:41:55;4;4;
46681;PMS5003;34101;53.430;-2.224;2023-06-01T15:44:23;6;5;
46681;PMS5003;34101;53.430;-2.224;2023-06-01T15:46:50;6;6;
46681;PMS5003;34101;53.430;-2.224;2023-06-01T15:49:18;7;4;
46681;PMS5003;34101;53.430;-2.224;2023-06-01T15:51:45;4;4;
46681;PMS5003;34101;53.430;-2.224;2023-06-01T15:54:13;4;4;
46681;PMS5003;34101;53.430;-2.224;2023-06-01T15:56:41;7;5;
46681;PMS5003;34101;53.430;-2.224;2023-06-01T15:59:09;4;4;
46681;PMS5003;34101;53.430;-2.224;2023-06-01T16:01:37;7;7;
46681;PMS5003;34101;53.430;-2.224;2023-06-01T16:04:04;3;3;
46681;PMS5003;34101;53.430;-2.224;2023-06-01T16:06:32;5;5;
46681;PMS5003;34101;53.430;-2.224;2023-06-01T16:09:00;4;4;
46681;PMS5003;34101;53.430;-2.224;2023-06-01T16:11:27;6;6;
46681;PMS5003;34101;53.430;-2.224;2023-06-01T16:13:55;4;4;
46681;PMS5003;34101;53.430;-2.224;2023-06-01T16:16:22;9;7;
46681;PMS5003;34101;53.430;-2.224;2023-06-01T16:18:50;6;6;
46681;PMS5003;34101;53.430;-2.224;2023-06-01T16:21:17;6;5;
46681;PMS5003;34101;53.430;-2.224;2023-06-01T16:23:44;5;5;
46681;PMS5003;34101;53.430;-2.224;2023-06-01T16:26:12;6;6;
46681;PMS5003;34101;53.430;-2.224;2023-06-01T16:28:40;5;5;
46681;PMS5003;34101;53.430;-2.224;2023-06-01T16:31:08;4;4;
46681;PMS5003;34101;53.430;-2.224;2023-06-01T16:33:35;7;5;
46681;PMS5003;34101;53.430;-2.224;2023-06-01T16:36:03;5;5;